Alton, Missouri
Current Conditions -  °F | °C
As of 1:53 AM on Friday 31 Oct 2014 (Local Time) from KUNO Reporting Station
Clear Clear  
Wind Chill: 51°   Ceiling: Unl
Heat Index: 51°   Visibility: 10mi
Dew Point: 41°   Wind: 13mph
Humidity: 68%   Direction: 330°NNW
Pressure: 30.06"   Gusts: 21mph
Location:  36.69°N, 91.4°W
Report Text: KUNO 310653Z AUTO 33011G18KT 10SM CLR 11/05 A3006 RMK AO2 SLP177 T01060050
Loading
Personal Weather Stations






























Interactive Weather Map
Tropical Storm Tracking
New forecast layout! Learn more

10-Day Weather Forecast

Advertisements
Track Severe Weather on mobile